Time;durP1;ratioP1;P1;durP2;ratioP2;P2;SDS_P1;SDS_P2;PMS_P1;PMS_P2;Temp;Humidity;BMP_temperature;BMP_pressure;BME280_temperature;BME280_humidity;BME280_pressure;Samples;Min_cycle;Max_cycle;Signal;HPM_P1;HPM_P2
2022/04/10 00:00:10;;;;;;;10.63;2.87;;;6.90;68.80;;;;;;2353986;57;21051;-73
2022/04/10 00:02:37;;;;;;;12.23;2.85;;;6.90;68.90;;;;;;2354648;57;21095;-74
2022/04/10 00:05:06;;;;;;;13.57;2.92;;;6.90;69.10;;;;;;2354384;57;21617;-73
2022/04/10 00:07:34;;;;;;;15.10;3.45;;;6.90;69.10;;;;;;2354382;57;21103;-74
2022/04/10 00:10:01;;;;;;;8.80;2.28;;;6.90;69.40;;;;;;2354613;57;21040;-73
2022/04/10 00:12:29;;;;;;;8.85;2.22;;;6.90;69.60;;;;;;2604209;53;21118;-73
2022/04/10 00:14:56;;;;;;;13.73;3.45;;;6.90;69.80;;;;;;2354562;57;21712;-72
2022/04/10 00:17:23;;;;;;;14.65;2.70;;;6.80;69.80;;;;;;2354691;57;21122;-72
2022/04/10 00:19:50;;;;;;;11.10;2.45;;;6.80;69.90;;;;;;2355437;57;21107;-73
2022/04/10 00:22:17;;;;;;;12.63;2.85;;;6.80;69.80;;;;;;2354909;57;21139;-73
2022/04/10 00:24:45;;;;;;;17.60;3.90;;;6.80;69.80;;;;;;2355081;57;21110;-73
2022/04/10 00:27:14;;;;;;;16.23;3.10;;;6.80;70.00;;;;;;2354566;57;21130;-73
2022/04/10 00:29:41;;;;;;;10.85;2.90;;;6.80;69.50;;;;;;2354947;57;21181;-72
2022/04/10 00:32:09;;;;;;;10.95;2.70;;;6.80;69.60;;;;;;2353999;57;21617;-73
2022/04/10 00:34:36;;;;;;;14.55;3.25;;;6.80;69.90;;;;;;2354816;57;21036;-73
2022/04/10 00:37:04;;;;;;;13.62;3.20;;;6.80;69.80;;;;;;2354035;57;21055;-73
2022/04/10 00:39:32;;;;;;;13.98;2.90;;;6.80;69.80;;;;;;2354941;57;21039;-75
2022/04/10 00:41:59;;;;;;;13.68;3.50;;;6.70;69.70;;;;;;2354905;57;21066;-74
2022/04/10 00:44:26;;;;;;;17.52;3.28;;;6.80;69.70;;;;;;2355005;57;21040;-73
2022/04/10 00:46:53;;;;;;;10.02;3.10;;;6.70;69.80;;;;;;2353502;57;21126;-74
2022/04/10 00:49:20;;;;;;;17.73;4.75;;;6.70;70.00;;;;;;2354807;57;21044;-73
2022/04/10 00:51:52;;;;;;;17.75;3.47;;;6.60;70.40;;;;;;2355167;57;21623;-73
2022/04/10 00:54:24;;;;;;;16.42;2.58;;;6.60;70.70;;;;;;2354990;57;21083;-73
2022/04/10 00:56:52;;;;;;;13.68;3.08;;;6.60;71.00;;;;;;2354559;57;21153;-74
2022/04/10 00:59:20;;;;;;;17.42;3.25;;;6.60;70.90;;;;;;2354692;57;21051;-73
2022/04/10 01:01:48;;;;;;;12.32;3.15;;;6.60;71.00;;;;;;2355071;57;21452;-72
2022/04/10 01:04:17;;;;;;;22.17;3.33;;;6.60;71.00;;;;;;2354702;57;21027;-72
2022/04/10 01:06:47;;;;;;;7.47;3.12;;;6.50;71.40;;;;;;2354352;57;21091;-73
2022/04/10 01:09:14;;;;;;;21.73;3.08;;;6.60;71.40;;;;;;2354945;57;21051;-74
2022/04/10 01:11:42;;;;;;;16.02;3.55;;;6.50;71.50;;;;;;2352278;57;21043;-73
2022/04/10 01:14:09;;;;;;;17.77;3.97;;;6.50;71.70;;;;;;2354774;57;21039;-73
2022/04/10 01:16:37;;;;;;;10.32;2.70;;;6.50;71.80;;;;;;2354781;57;21542;-72
2022/04/10 01:19:05;;;;;;;12.25;2.55;;;6.50;71.80;;;;;;2354802;57;21530;-73
2022/04/10 01:21:39;;;;;;;14.13;3.25;;;6.50;71.50;;;;;;2355089;57;21376;-73
2022/04/10 01:24:09;;;;;;;7.35;2.85;;;6.50;71.20;;;;;;2355232;57;21557;-73
2022/04/10 01:26:36;;;;;;;16.80;2.47;;;6.50;71.10;;;;;;2352404;57;21051;-73
2022/04/10 01:29:06;;;;;;;9.55;2.70;;;6.50;70.90;;;;;;2355262;57;21115;-72
2022/04/10 01:31:35;;;;;;;13.25;2.65;;;6.50;71.00;;;;;;2355339;57;21049;-73
2022/04/10 01:34:05;;;;;;;17.12;3.03;;;6.40;70.90;;;;;;2355049;57;21136;-72
2022/04/10 01:36:34;;;;;;;8.90;2.53;;;6.50;70.50;;;;;;2354710;57;21055;-73
2022/04/10 01:39:03;;;;;;;10.90;2.87;;;6.50;70.50;;;;;;2355261;57;21056;-73
2022/04/10 01:41:31;;;;;;;8.02;3.15;;;6.40;70.40;;;;;;2353270;57;21059;-73
2022/04/10 01:43:59;;;;;;;13.70;2.78;;;6.40;70.40;;;;;;2353689;57;21373;-72
2022/04/10 01:46:32;;;;;;;14.90;2.90;;;6.50;70.60;;;;;;2603174;53;21130;-73
2022/04/10 01:49:00;;;;;;;11.00;3.08;;;6.40;70.90;;;;;;2355033;57;21046;-73
2022/04/10 01:51:27;;;;;;;9.95;2.87;;;6.40;71.20;;;;;;2604382;53;21039;-73
2022/04/10 01:53:55;;;;;;;10.57;2.55;;;6.40;71.60;;;;;;2354768;57;21048;-73
2022/04/10 01:56:22;;;;;;;11.95;2.60;;;6.30;71.60;;;;;;2354090;57;21569;-73
2022/04/10 01:58:52;;;;;;;6.28;2.08;;;6.30;71.70;;;;;;2352812;57;21110;-73
2022/04/10 02:01:20;;;;;;;9.80;2.58;;;6.30;71.90;;;;;;2603363;53;21043;-73
2022/04/10 02:03:50;;;;;;;7.18;2.35;;;6.30;72.70;;;;;;2465397;53;21123;-72
2022/04/10 02:06:18;;;;;;;7.97;2.42;;;6.30;71.90;;;;;;2307096;58;21153;-73
2022/04/10 02:08:46;;;;;;;6.72;2.80;;;6.30;71.60;;;;;;2307601;58;21054;-74
2022/04/10 02:11:14;;;;;;;7.97;2.22;;;6.30;71.50;;;;;;2307956;58;21129;-73
2022/04/10 02:13:42;;;;;;;10.60;2.97;;;6.30;71.00;;;;;;2305952;58;22439;-73
2022/04/10 02:16:12;;;;;;;12.25;2.55;;;6.30;71.10;;;;;;2306275;58;21212;-73
2022/04/10 02:18:40;;;;;;;8.85;2.33;;;6.20;71.10;;;;;;2306928;58;21054;-73
2022/04/10 02:21:08;;;;;;;5.18;2.12;;;6.20;71.30;;;;;;2307113;58;21133;-73
2022/04/10 02:23:35;;;;;;;6.12;2.20;;;6.10;71.30;;;;;;2307493;58;21198;-72
2022/04/10 02:26:03;;;;;;;5.18;2.20;;;6.10;71.20;;;;;;2306223;58;21130;-74
2022/04/10 02:28:30;;;;;;;6.18;2.10;;;6.10;71.40;;;;;;2307683;58;21074;-73
2022/04/10 02:30:57;;;;;;;6.12;1.80;;;6.10;71.70;;;;;;2307254;58;21050;-73
2022/04/10 02:36:00;;;;;;;6.78;2.55;;;6.10;71.50;;;;;;2347923;56;27909;-73
2022/04/10 02:38:27;;;;;;;10.85;2.92;;;5.70;75.10;;;;;;2628384;52;21059;-75
2022/04/10 02:40:55;;;;;;;5.75;2.53;;;6.00;74.40;;;;;;2374580;56;21113;-74
2022/04/10 02:43:22;;;;;;;14.52;2.87;;;6.00;72.70;;;;;;2374766;56;21111;-75
2022/04/10 02:45:49;;;;;;;7.07;2.30;;;6.10;72.30;;;;;;2374141;56;21047;-74
2022/04/10 02:48:17;;;;;;;11.55;2.70;;;6.20;72.00;;;;;;2375131;56;21201;-74
2022/04/10 02:50:44;;;;;;;19.00;3.42;;;6.20;71.30;;;;;;2375347;56;21117;-74
2022/04/10 02:53:11;;;;;;;10.50;2.90;;;6.10;71.50;;;;;;2374505;56;21660;-74
2022/04/10 02:55:38;;;;;;;13.25;3.40;;;6.10;71.60;;;;;;2374565;56;21086;-74
2022/04/10 02:58:06;;;;;;;9.48;3.22;;;6.10;71.80;;;;;;2628555;52;21039;-74
2022/04/10 03:00:33;;;;;;;6.90;2.72;;;6.10;72.30;;;;;;2374945;56;21087;-74
2022/04/10 03:03:00;;;;;;;10.60;2.65;;;6.00;72.60;;;;;;2375445;56;21038;-75
2022/04/10 03:05:28;;;;;;;13.00;3.45;;;6.10;72.50;;;;;;2374770;56;21126;-74
2022/04/10 03:07:55;;;;;;;7.45;2.92;;;6.10;73.00;;;;;;2375041;56;21094;-73
2022/04/10 03:10:22;;;;;;;13.95;2.90;;;6.00;73.70;;;;;;2374375;56;21050;-74
2022/04/10 03:12:50;;;;;;;7.72;2.58;;;5.90;73.30;;;;;;2375194;56;21043;-74
2022/04/10 03:15:17;;;;;;;8.52;2.78;;;5.90;73.70;;;;;;2374915;56;21134;-74
2022/04/10 03:17:44;;;;;;;7.25;2.53;;;5.90;73.60;;;;;;2375391;56;21122;-74
2022/04/10 03:20:12;;;;;;;6.22;2.50;;;5.80;73.30;;;;;;2629241;52;21517;-75
2022/04/10 03:22:40;;;;;;;6.80;2.25;;;5.80;73.30;;;;;;2375189;56;21105;-74
2022/04/10 03:25:09;;;;;;;6.60;2.10;;;5.80;73.40;;;;;;2374405;56;21051;-74
2022/04/10 03:27:36;;;;;;;8.32;2.17;;;5.80;73.40;;;;;;2374941;56;21102;-74
2022/04/10 03:30:05;;;;;;;4.87;1.85;;;5.80;73.20;;;;;;2373568;56;21075;-74
2022/04/10 03:32:32;;;;;;;7.72;2.15;;;5.80;73.00;;;;;;2374710;56;21058;-75
2022/04/10 03:34:59;;;;;;;7.07;2.50;;;5.80;72.90;;;;;;2628678;52;21197;-74
2022/04/10 03:37:27;;;;;;;6.22;2.00;;;5.80;72.70;;;;;;2374620;56;21094;-74
2022/04/10 03:39:54;;;;;;;8.18;2.35;;;5.80;72.60;;;;;;2374611;56;21047;-74
2022/04/10 03:42:21;;;;;;;7.55;2.75;;;5.80;72.10;;;;;;2374726;56;21098;-75
2022/04/10 03:44:48;;;;;;;6.43;2.40;;;5.80;72.00;;;;;;2375295;56;21067;-74
2022/04/10 03:47:16;;;;;;;6.10;2.50;;;5.80;72.30;;;;;;2372011;56;21538;-73
2022/04/10 03:49:43;;;;;;;7.35;3.08;;;5.70;72.40;;;;;;2373512;56;21046;-74
2022/04/10 03:52:10;;;;;;;4.40;2.58;;;5.70;72.70;;;;;;2374341;56;21102;-74
2022/04/10 03:54:38;;;;;;;7.87;2.92;;;5.80;72.30;;;;;;2373793;56;22241;-74
2022/04/10 03:57:06;;;;;;;5.70;2.60;;;5.80;72.40;;;;;;2373626;56;21133;-74
2022/04/10 03:59:33;;;;;;;6.53;2.40;;;5.80;72.30;;;;;;2373950;56;21055;-73
2022/04/10 04:02:00;;;;;;;7.25;2.80;;;5.70;72.20;;;;;;2627599;52;21035;-74
2022/04/10 04:04:27;;;;;;;7.15;2.75;;;5.80;72.30;;;;;;2372297;56;21051;-73
2022/04/10 04:06:54;;;;;;;8.48;3.67;;;5.70;72.40;;;;;;2373227;56;21588;-75
2022/04/10 04:09:22;;;;;;;6.68;3.12;;;5.70;72.60;;;;;;2373936;56;21039;-74
2022/04/10 04:11:49;;;;;;;8.30;3.20;;;5.80;72.50;;;;;;2627269;52;21034;-74
2022/04/10 04:14:16;;;;;;;8.50;3.30;;;5.80;72.20;;;;;;2627225;52;21054;-74
2022/04/10 04:16:43;;;;;;;17.52;4.45;;;5.80;72.10;;;;;;2372813;56;21684;-74
2022/04/10 04:19:11;;;;;;;8.30;3.72;;;5.80;72.30;;;;;;2373858;56;21114;-74
2022/04/10 04:21:38;;;;;;;8.00;3.47;;;5.80;72.30;;;;;;2627030;52;21589;-74
2022/04/10 04:24:06;;;;;;;10.50;3.67;;;5.80;72.50;;;;;;2373546;56;21070;-75
2022/04/10 04:26:33;;;;;;;6.60;3.17;;;5.80;72.80;;;;;;2626745;52;21042;-74
2022/04/10 04:29:00;;;;;;;9.35;3.40;;;5.80;72.80;;;;;;2627587;52;22100;-74
2022/04/10 04:31:28;;;;;;;10.32;3.20;;;5.80;73.00;;;;;;2373715;56;21038;-74
2022/04/10 04:33:55;;;;;;;12.88;4.12;;;5.80;73.00;;;;;;2373884;56;21043;-72
2022/04/10 04:36:22;;;;;;;14.85;4.20;;;5.80;72.80;;;;;;2373476;56;21097;-74
2022/04/10 04:38:49;;;;;;;12.20;4.05;;;5.80;72.80;;;;;;2373791;56;21623;-73
2022/04/10 04:41:16;;;;;;;12.57;4.15;;;5.80;72.70;;;;;;2626443;52;21043;-74
2022/04/10 04:43:44;;;;;;;9.20;3.45;;;5.80;72.50;;;;;;2373323;56;21101;-73
2022/04/10 04:46:11;;;;;;;21.48;5.10;;;5.80;72.50;;;;;;2371937;56;21582;-74
2022/04/10 04:48:38;;;;;;;11.68;3.75;;;5.80;72.30;;;;;;2372960;56;21031;-73
2022/04/10 04:51:06;;;;;;;10.43;3.70;;;5.80;72.20;;;;;;2373684;56;21034;-73
2022/04/10 04:53:33;;;;;;;9.00;3.35;;;5.80;71.60;;;;;;2373170;56;21090;-73
2022/04/10 04:56:00;;;;;;;12.23;6.60;;;5.90;71.90;;;;;;2373260;56;21028;-74
2022/04/10 04:58:27;;;;;;;11.43;3.17;;;5.80;71.90;;;;;;2372087;56;21051;-73
2022/04/10 05:00:54;;;;;;;9.88;4.07;;;5.80;72.10;;;;;;2372927;56;21113;-74
2022/04/10 05:03:22;;;;;;;8.23;3.70;;;5.90;71.90;;;;;;2372647;56;21065;-73
2022/04/10 05:05:49;;;;;;;12.57;4.20;;;5.90;71.80;;;;;;2372269;56;21628;-73
2022/04/10 05:08:19;;;;;;;16.83;4.82;;;5.80;72.00;;;;;;2372986;56;21026;-73
2022/04/10 05:10:46;;;;;;;15.65;4.90;;;5.80;72.40;;;;;;2372790;56;21067;-74
2022/04/10 05:13:14;;;;;;;13.38;4.22;;;5.80;72.30;;;;;;2372955;56;21126;-73
2022/04/10 05:15:41;;;;;;;11.55;4.28;;;5.80;71.80;;;;;;2372313;56;21125;-73
2022/04/10 05:18:08;;;;;;;15.63;5.40;;;5.80;72.20;;;;;;2373055;56;21050;-74
2022/04/10 05:20:37;;;;;;;7.70;3.92;;;5.80;72.50;;;;;;2372085;56;21063;-74
2022/04/10 05:23:04;;;;;;;11.00;4.37;;;5.80;71.90;;;;;;2372326;56;21165;-73
2022/04/10 05:25:31;;;;;;;10.63;3.45;;;5.80;72.40;;;;;;2625997;52;21135;-73
2022/04/10 05:27:59;;;;;;;8.95;4.10;;;5.80;72.50;;;;;;2373148;56;21569;-73
2022/04/10 05:30:26;;;;;;;11.98;4.82;;;5.80;72.30;;;;;;2372568;56;21141;-74
2022/04/10 05:32:53;;;;;;;20.50;6.15;;;5.80;72.30;;;;;;2373095;56;21047;-74
2022/04/10 05:35:21;;;;;;;13.32;4.80;;;5.80;72.50;;;;;;2373273;56;21105;-74
2022/04/10 05:40:23;;;;;;;14.48;6.22;;;5.90;72.40;;;;;;2334975;57;28231;-73
2022/04/10 05:42:51;;;;;;;15.15;5.30;;;5.50;76.20;;;;;;2346676;57;21116;-73
2022/04/10 05:45:18;;;;;;;19.87;5.70;;;5.80;75.50;;;;;;2349216;56;21082;-73
2022/04/10 05:47:46;;;;;;;12.90;4.70;;;5.80;73.90;;;;;;2627715;52;21381;-72
2022/04/10 05:50:14;;;;;;;26.48;5.55;;;6.00;73.80;;;;;;2374067;56;21102;-76
2022/04/10 05:52:43;;;;;;;16.48;4.43;;;6.00;73.40;;;;;;2374454;56;21035;-73
2022/04/10 05:55:12;;;;;;;10.43;3.62;;;6.00;73.40;;;;;;2627544;52;21110;-75
2022/04/10 05:57:40;;;;;;;16.83;4.70;;;6.10;73.70;;;;;;2627672;52;21747;-74
2022/04/10 06:00:11;;;;;;;25.27;6.22;;;6.10;73.70;;;;;;2374065;56;21138;-74
2022/04/10 06:02:38;;;;;;;14.93;4.07;;;6.10;73.90;;;;;;2373760;56;21043;-77
2022/04/10 06:05:07;;;;;;;18.52;4.35;;;6.00;74.40;;;;;;2627672;52;21126;-75
2022/04/10 06:07:35;;;;;;;20.95;4.22;;;6.00;74.50;;;;;;2374081;56;21029;-75
2022/04/10 06:10:03;;;;;;;11.15;3.72;;;6.00;74.00;;;;;;2374287;56;21073;-75
2022/04/10 06:12:31;;;;;;;10.63;3.30;;;6.00;74.70;;;;;;2628241;52;21039;-76
2022/04/10 06:14:58;;;;;;;12.90;3.53;;;6.00;74.30;;;;;;2374035;56;21118;-75
2022/04/10 06:17:25;;;;;;;14.27;3.37;;;6.00;74.70;;;;;;2374036;56;21134;-74
2022/04/10 06:19:53;;;;;;;16.58;5.00;;;6.10;74.20;;;;;;2374158;56;21586;-75
2022/04/10 06:22:21;;;;;;;12.50;3.50;;;6.10;74.10;;;;;;2373980;56;21102;-75
2022/04/10 06:24:48;;;;;;;8.90;3.12;;;6.10;73.60;;;;;;2375036;56;21055;-75
2022/04/10 06:27:15;;;;;;;15.15;4.82;;;6.20;73.30;;;;;;2374394;56;21105;-76
2022/04/10 06:29:42;;;;;;;11.93;4.05;;;6.20;73.40;;;;;;2374430;56;21114;-75
2022/04/10 06:32:10;;;;;;;11.23;3.30;;;6.20;73.30;;;;;;2374384;56;21027;-75
2022/04/10 06:34:38;;;;;;;12.95;3.45;;;6.20;73.20;;;;;;2374533;56;21047;-75
2022/04/10 06:37:07;;;;;;;16.77;3.65;;;6.20;73.10;;;;;;2627112;52;21145;-73
2022/04/10 06:39:35;;;;;;;12.45;3.55;;;6.20;73.30;;;;;;2373812;56;21035;-73
2022/04/10 06:42:06;;;;;;;15.43;5.10;;;6.20;73.60;;;;;;2627028;52;21086;-73
2022/04/10 06:44:33;;;;;;;16.10;4.25;;;6.20;73.50;;;;;;2374731;56;21119;-73
2022/04/10 06:47:00;;;;;;;16.25;3.95;;;6.20;73.60;;;;;;2374100;56;21569;-74
2022/04/10 06:49:27;;;;;;;23.08;4.35;;;6.20;74.00;;;;;;2373999;56;21047;-73
2022/04/10 06:51:55;;;;;;;20.98;5.00;;;6.20;74.10;;;;;;2373611;56;21111;-76
2022/04/10 06:54:22;;;;;;;18.15;4.12;;;6.20;74.10;;;;;;2372318;56;21087;-76
2022/04/10 06:56:49;;;;;;;13.75;3.58;;;6.30;74.00;;;;;;2371325;56;21043;-75
2022/04/10 06:59:16;;;;;;;12.48;3.37;;;6.20;74.00;;;;;;2372519;56;21047;-75
2022/04/10 07:01:44;;;;;;;17.12;4.82;;;6.20;74.40;;;;;;2373443;56;21031;-76
2022/04/10 07:04:12;;;;;;;18.50;4.28;;;6.30;75.50;;;;;;2626136;52;21060;-75
2022/04/10 07:06:39;;;;;;;14.70;3.30;;;6.40;75.70;;;;;;2373559;56;21031;-75
2022/04/10 07:09:06;;;;;;;19.85;3.45;;;6.40;75.80;;;;;;2371969;56;21388;-74
2022/04/10 07:11:34;;;;;;;12.63;3.50;;;6.50;75.80;;;;;;2373856;56;21118;-76
2022/04/10 07:14:01;;;;;;;11.23;3.15;;;6.50;74.50;;;;;;2373034;56;21110;-75
2022/04/10 07:16:28;;;;;;;9.05;3.00;;;6.60;75.10;;;;;;2626155;52;21533;-75
2022/04/10 07:18:56;;;;;;;18.75;3.55;;;6.60;74.30;;;;;;2373363;56;21059;-76
2022/04/10 07:24:10;;;;;;;21.58;3.85;;;6.80;74.50;;;;;;2625847;52;21059;-75
2022/04/10 07:26:37;;;;;;;9.80;3.15;;;6.80;74.60;;;;;;2372871;56;21047;-75
2022/04/10 07:29:04;;;;;;;13.90;2.80;;;6.90;74.50;;;;;;2372557;56;21081;-75
2022/04/10 07:31:32;;;;;;;17.65;4.43;;;6.90;74.60;;;;;;2373312;56;21039;-75
2022/04/10 07:33:59;;;;;;;12.45;3.47;;;6.90;74.30;;;;;;2372300;56;21132;-75
2022/04/10 07:36:26;;;;;;;8.85;2.67;;;7.00;74.60;;;;;;2372832;56;21055;-74
2022/04/10 07:38:54;;;;;;;10.48;3.60;;;7.00;73.90;;;;;;2373178;56;21043;-76
2022/04/10 07:41:21;;;;;;;10.98;2.62;;;7.00;73.30;;;;;;2373344;56;21197;-74
2022/04/10 07:43:48;;;;;;;8.77;2.35;;;7.10;73.40;;;;;;2373451;56;21574;-74
2022/04/10 07:49:02;;;;;;;12.18;2.95;;;7.20;72.00;;;;;;2373219;56;21569;-73
2022/04/10 07:51:29;;;;;;;6.25;2.37;;;7.30;71.90;;;;;;2373725;56;21138;-72
2022/04/10 07:53:57;;;;;;;10.18;3.22;;;7.30;71.60;;;;;;2373484;56;21038;-72
2022/04/10 07:56:24;;;;;;;13.05;2.70;;;7.40;72.00;;;;;;2373218;56;21055;-73
2022/04/10 07:58:51;;;;;;;11.85;2.92;;;7.40;71.70;;;;;;2373247;56;21118;-72
2022/04/10 08:01:19;;;;;;;7.60;2.35;;;7.50;71.30;;;;;;2373345;56;21102;-73
2022/04/10 08:04:05;;;;;;;13.80;3.30;;;7.60;71.20;;;;;;2373562;56;21123;-73
2022/04/10 08:06:32;;;;;;;7.57;2.92;;;7.70;71.20;;;;;;2143865;63;21117;-74
2022/04/10 08:09:00;;;;;;;10.95;2.97;;;7.70;71.10;;;;;;2143783;63;21158;-74
2022/04/10 08:11:27;;;;;;;21.62;3.08;;;7.70;69.80;;;;;;2143596;63;21109;-74
2022/04/10 08:13:55;;;;;;;11.85;2.72;;;7.80;70.30;;;;;;2142115;63;21201;-75
2022/04/10 08:16:22;;;;;;;13.25;2.97;;;7.80;70.70;;;;;;2143379;63;21169;-76
2022/04/10 08:18:49;;;;;;;13.18;2.70;;;7.90;70.60;;;;;;2143617;63;21170;-76
2022/04/10 08:21:17;;;;;;;9.20;2.70;;;7.90;70.20;;;;;;2143963;63;21121;-74
2022/04/10 08:23:44;;;;;;;7.68;2.33;;;8.00;70.80;;;;;;2347755;59;21177;-73
2022/04/10 08:26:11;;;;;;;14.00;3.35;;;8.00;70.40;;;;;;2143342;63;21415;-74
2022/04/10 08:28:39;;;;;;;8.98;2.30;;;8.00;69.80;;;;;;2143715;63;21268;-74
2022/04/10 08:31:07;;;;;;;9.02;2.45;;;8.00;70.00;;;;;;2142553;63;21165;-74
2022/04/10 08:33:34;;;;;;;9.27;2.03;;;7.90;70.40;;;;;;2144082;63;21106;-79
2022/04/10 08:36:01;;;;;;;13.52;2.40;;;7.90;70.20;;;;;;2347563;59;21113;-77
2022/04/10 08:38:30;;;;;;;4.90;1.67;;;7.80;69.50;;;;;;2144324;63;21106;-80
2022/04/10 08:41:00;;;;;;;6.45;1.35;;;7.70;69.20;;;;;;2348743;59;21094;-79
2022/04/10 08:43:28;;;;;;;8.52;1.62;;;7.60;69.20;;;;;;2144944;63;21113;-79
2022/04/10 08:45:57;;;;;;;7.07;1.80;;;7.60;70.00;;;;;;2143524;63;21165;-77
2022/04/10 08:48:26;;;;;;;13.60;2.47;;;7.60;69.60;;;;;;2144934;63;21098;-79
2022/04/10 08:50:55;;;;;;;7.90;2.22;;;7.50;70.10;;;;;;2144750;63;21112;-81
2022/04/10 08:53:23;;;;;;;10.27;2.40;;;7.50;70.80;;;;;;2145435;63;21105;-82
2022/04/10 08:55:50;;;;;;;16.62;2.83;;;7.50;71.10;;;;;;2144525;63;21097;-79
2022/04/10 08:58:19;;;;;;;10.88;2.78;;;7.50;71.90;;;;;;2145415;63;21237;-80
2022/04/10 09:00:46;;;;;;;17.40;3.22;;;7.50;72.70;;;;;;2144904;63;21147;-79
2022/04/10 09:03:14;;;;;;;14.85;3.72;;;7.60;73.20;;;;;;2348487;59;21118;-80
2022/04/10 09:05:41;;;;;;;12.65;2.78;;;7.60;73.60;;;;;;2144938;63;21568;-82
2022/04/10 09:08:11;;;;;;;11.35;3.33;;;7.70;74.30;;;;;;2145411;63;21101;-84
2022/04/10 09:10:56;;;;;;;9.25;3.03;;;7.70;74.00;;;;;;2349839;58;21178;-82
2022/04/10 09:13:28;;;;;;;11.93;3.15;;;7.70;73.90;;;;;;2143931;63;21169;-79
2022/04/10 09:16:07;;;;;;;11.43;2.62;;;7.80;73.40;;;;;;2143743;63;21098;-79
2022/04/10 09:18:49;;;;;;;10.63;2.75;;;7.80;73.50;;;;;;2144724;63;21161;-80
2022/04/10 09:21:18;;;;;;;19.73;3.40;;;7.90;72.80;;;;;;2349541;59;21153;-79
2022/04/10 09:23:53;;;;;;;13.90;2.83;;;8.00;71.50;;;;;;2144519;63;21157;-80
2022/04/10 09:26:21;;;;;;;9.18;2.28;;;8.00;70.90;;;;;;2144164;63;21106;-79
2022/04/10 09:28:49;;;;;;;9.43;2.30;;;8.10;70.70;;;;;;2144927;63;21179;-78
2022/04/10 09:31:30;;;;;;;6.60;2.12;;;8.10;70.50;;;;;;2144358;63;21117;-78
2022/04/10 09:33:59;;;;;;;10.32;2.83;;;8.10;69.90;;;;;;2144435;63;21174;-79
2022/04/10 09:36:45;;;;;;;8.63;2.35;;;8.20;68.60;;;;;;2144288;63;21098;-77
2022/04/10 09:39:15;;;;;;;9.73;2.33;;;8.20;68.20;;;;;;2348710;59;21109;-78
2022/04/10 09:41:44;;;;;;;12.30;2.75;;;8.30;68.30;;;;;;2144698;63;21102;-77
2022/04/10 09:44:17;;;;;;;14.95;2.25;;;8.40;67.50;;;;;;2145160;63;21162;-78
2022/04/10 09:46:55;;;;;;;9.43;2.17;;;8.40;67.20;;;;;;2143451;63;21103;-79
2022/04/10 09:49:23;;;;;;;9.32;2.03;;;8.50;67.70;;;;;;2144767;63;21102;-78
2022/04/10 09:52:01;;;;;;;10.68;3.00;;;8.60;67.70;;;;;;2144451;63;21189;-77
2022/04/10 09:54:38;;;;;;;11.23;2.62;;;8.60;67.30;;;;;;2144590;63;21170;-78
2022/04/10 09:57:09;;;;;;;8.65;2.22;;;8.70;66.90;;;;;;2144654;63;21109;-78
2022/04/10 09:59:39;;;;;;;9.15;2.12;;;8.80;65.40;;;;;;2144852;63;21142;-77
2022/04/10 10:02:07;;;;;;;9.68;3.08;;;8.90;65.00;;;;;;2144767;63;21169;-78
2022/04/10 10:04:39;;;;;;;13.10;2.70;;;9.00;64.70;;;;;;2142955;63;21114;-78
2022/04/10 10:07:10;;;;;;;6.07;2.20;;;9.00;63.90;;;;;;2144511;63;21580;-80
2022/04/10 10:09:38;;;;;;;7.45;2.45;;;9.00;63.80;;;;;;2145083;63;21138;-79
2022/04/10 10:12:07;;;;;;;17.55;2.78;;;9.10;64.40;;;;;;2143814;63;21197;-78
2022/04/10 10:14:35;;;;;;;12.98;2.55;;;9.00;64.30;;;;;;2349276;59;21093;-77
2022/04/10 10:17:05;;;;;;;11.43;2.28;;;9.10;64.50;;;;;;2348091;59;21162;-79
2022/04/10 10:19:34;;;;;;;10.77;2.65;;;9.10;63.90;;;;;;2144395;63;21129;-77
2022/04/10 10:22:02;;;;;;;14.05;2.80;;;9.10;64.40;;;;;;2144673;63;21127;-79
2022/04/10 10:24:35;;;;;;;14.52;2.60;;;9.20;64.70;;;;;;2348843;59;21232;-77
2022/04/10 10:27:24;;;;;;;14.60;4.12;;;9.20;63.60;;;;;;2143816;63;21165;-78
2022/04/10 10:30:18;;;;;;;7.18;2.00;;;9.20;61.60;;;;;;2144421;63;21166;-78
2022/04/10 10:32:48;;;;;;;8.77;1.85;;;9.30;61.30;;;;;;2143417;63;21189;-77
2022/04/10 10:35:30;;;;;;;11.10;2.20;;;9.40;61.80;;;;;;2143924;63;21109;-76
2022/04/10 10:37:57;;;;;;;9.55;2.65;;;9.50;61.30;;;;;;2144159;63;21177;-75
2022/04/10 10:40:24;;;;;;;11.55;2.28;;;9.60;59.60;;;;;;2143950;63;21137;-77
2022/04/10 10:42:57;;;;;;;7.93;1.60;;;9.70;60.30;;;;;;2143892;63;21121;-78
2022/04/10 10:45:34;;;;;;;11.63;2.30;;;9.80;58.90;;;;;;2144369;63;21133;-78
2022/04/10 10:48:23;;;;;;;7.22;1.90;;;9.90;58.10;;;;;;2349361;59;21580;-77
2022/04/10 10:50:51;;;;;;;4.78;1.33;;;10.00;57.80;;;;;;2349027;59;21130;-78
2022/04/10 10:53:42;;;;;;;6.82;1.35;;;10.10;57.40;;;;;;2145161;63;21113;-79
2022/04/10 10:56:14;;;;;;;4.82;1.40;;;10.10;55.30;;;;;;2144078;63;21652;-78
2022/04/10 10:58:41;;;;;;;5.32;1.30;;;10.20;55.10;;;;;;2144283;63;21177;-76
2022/04/10 11:01:16;;;;;;;7.68;2.17;;;10.20;54.80;;;;;;2144410;63;21121;-77
2022/04/10 11:04:02;;;;;;;8.30;2.05;;;10.20;54.40;;;;;;2144544;63;21205;-77
2022/04/10 11:06:33;;;;;;;4.47;1.25;;;10.30;54.70;;;;;;2143860;63;21154;-77
2022/04/10 11:09:20;;;;;;;7.62;1.70;;;10.20;54.70;;;;;;2145074;63;21086;-78
2022/04/10 11:11:48;;;;;;;7.00;1.70;;;10.30;55.10;;;;;;2349389;58;21162;-78
2022/04/10 11:14:36;;;;;;;6.15;1.58;;;10.40;55.30;;;;;;2144806;63;21097;-78
2022/04/10 11:17:14;;;;;;;4.35;1.42;;;10.50;54.10;;;;;;2144405;63;21109;-77
2022/04/10 11:19:45;;;;;;;2.42;1.10;;;10.30;54.90;;;;;;2145036;63;21101;-76
2022/04/10 11:22:16;;;;;;;9.20;1.80;;;10.00;57.50;;;;;;2142774;63;21150;-77
2022/04/10 11:24:45;;;;;;;5.40;1.75;;;9.70;59.30;;;;;;2144904;63;21086;-78
2022/04/10 11:27:13;;;;;;;7.45;1.42;;;9.50;60.20;;;;;;2143320;63;21632;-76
2022/04/10 11:29:55;;;;;;;8.07;1.83;;;9.30;61.60;;;;;;2143933;63;21170;-74
2022/04/10 11:32:22;;;;;;;6.75;1.52;;;9.20;62.30;;;;;;2143939;63;21121;-77
2022/04/10 11:35:00;;;;;;;5.47;2.58;;;9.10;62.50;;;;;;2144616;63;21205;-78
2022/04/10 11:37:39;;;;;;;8.10;2.22;;;9.00;63.50;;;;;;2144606;63;21572;-78
2022/04/10 11:40:11;;;;;;;6.25;1.80;;;9.00;64.10;;;;;;2144063;63;21110;-77
2022/04/10 11:42:38;;;;;;;6.15;1.30;;;9.00;63.70;;;;;;2348856;58;21114;-78
2022/04/10 11:45:10;;;;;;;3.87;1.87;;;9.10;63.90;;;;;;2348119;59;21157;-77
2022/04/10 11:47:39;;;;;;;3.08;1.33;;;9.10;63.60;;;;;;2144228;63;21097;-76
2022/04/10 11:50:09;;;;;;;8.88;1.67;;;9.20;64.00;;;;;;2144333;63;21091;-77
2022/04/10 11:52:37;;;;;;;4.78;1.20;;;9.30;63.50;;;;;;2144072;63;21640;-77
2022/04/10 11:55:08;;;;;;;6.93;1.33;;;9.30;63.10;;;;;;2347964;59;21177;-76
2022/04/10 11:57:38;;;;;;;4.07;1.50;;;9.40;63.20;;;;;;2143685;63;21217;-76
2022/04/10 12:00:10;;;;;;;5.30;1.40;;;9.50;62.00;;;;;;2143524;63;21094;-75
2022/04/10 12:02:38;;;;;;;7.72;2.28;;;9.60;60.40;;;;;;2347930;59;21101;-75
2022/04/10 12:05:08;;;;;;;6.22;1.98;;;9.60;60.50;;;;;;2143676;63;21452;-74
2022/04/10 12:07:39;;;;;;;7.30;2.85;;;9.70;59.50;;;;;;2143362;63;21173;-76
2022/04/10 12:10:08;;;;;;;14.48;1.90;;;9.80;59.20;;;;;;2144312;63;21195;-77
2022/04/10 12:12:37;;;;;;;9.70;2.22;;;9.80;58.30;;;;;;2143734;63;21102;-76
2022/04/10 12:15:16;;;;;;;6.35;1.70;;;9.90;58.10;;;;;;2143889;63;21165;-75
2022/04/10 12:17:43;;;;;;;3.22;1.12;;;10.10;57.70;;;;;;2143479;63;21173;-75
2022/04/10 12:20:12;;;;;;;4.18;1.62;;;10.10;56.90;;;;;;2347721;59;21153;-75
2022/04/10 12:22:39;;;;;;;7.00;1.87;;;10.20;56.40;;;;;;2144435;63;21340;-76
2022/04/10 12:25:09;;;;;;;8.60;2.10;;;10.20;56.20;;;;;;2143740;63;21127;-74
2022/04/10 12:27:36;;;;;;;10.30;1.83;;;10.20;56.60;;;;;;2143783;63;21098;-76
2022/04/10 12:30:10;;;;;;;11.95;2.40;;;10.20;57.00;;;;;;2144390;63;21177;-74
2022/04/10 12:32:38;;;;;;;5.37;1.40;;;10.20;56.70;;;;;;2143339;63;21106;-76
2022/04/10 12:35:10;;;;;;;11.00;2.20;;;10.20;56.60;;;;;;2143913;63;21607;-73
2022/04/10 12:37:43;;;;;;;5.37;1.50;;;10.10;56.40;;;;;;2143795;63;21090;-76
2022/04/10 12:40:11;;;;;;;;;;;10.20;57.50;;;;;;2351858;59;21102;-76
2022/04/10 12:45:20;;;;;;;3.33;1.65;;;10.30;57.70;;;;;;2323975;57;22111;-75
2022/04/10 12:47:48;;;;;;;6.87;1.60;;;10.50;58.00;;;;;;2319004;58;21078;-77
2022/04/10 12:50:18;;;;;;;3.85;1.73;;;10.60;56.10;;;;;;2318592;58;21557;-77
2022/04/10 12:52:46;;;;;;;3.95;1.30;;;10.60;55.70;;;;;;2319065;58;21055;-76
2022/04/10 12:55:19;;;;;;;4.20;1.20;;;10.60;55.60;;;;;;2319352;58;21144;-74
2022/04/10 12:57:54;;;;;;;6.28;1.60;;;10.70;55.60;;;;;;2319208;58;21051;-75
2022/04/10 13:00:29;;;;;;;7.53;1.30;;;10.90;55.30;;;;;;2319188;58;21648;-76
2022/04/10 13:02:57;;;;;;;4.00;1.55;;;11.10;55.10;;;;;;2319342;58;21162;-76
2022/04/10 13:05:25;;;;;;;8.88;1.60;;;11.10;52.70;;;;;;2318219;58;21102;-76
2022/04/10 13:08:00;;;;;;;5.72;1.83;;;11.00;51.30;;;;;;2319605;57;21062;-75
2022/04/10 13:10:29;;;;;;;7.32;2.35;;;11.00;51.80;;;;;;2560358;54;21114;-75
2022/04/10 13:13:05;;;;;;;5.40;1.50;;;10.90;51.80;;;;;;2319054;58;21055;-75